• Join FlightAware (Why Join?)
  • Login
  • US Flag 
03:05AM EST


 

Airport Tracker/Info


-or-


 

Live Flight TrackerFlight Track Log ✈ UAL118 ✈ 16-Apr-2013 ✈ EDDF / FRA - KEWR

Flight Track Log - Related Links

Times and Time Zones

All times are in EDT time to prevent confusion due to time zone crossing. See the UAL118 flight status page for this flight to view local times or setup timezone preferences in your user account.

Time Position Orientation Groundspeed Altitude Reporting Facility
EDT Latitude Longitude Course Direction KTS MPH feet Rate Location/Type
06:37AM 50.1747 8.1260 298° West  Level FlightAware Approximate
06:38AM 50.2200 7.9739 299° West  Level FlightAware Approximate
06:39AM 50.2730 7.8258 299° West  Level FlightAware Approximate
06:40AM 50.3225 7.6748 295° West  Level FlightAware Approximate
06:41AM 50.3683 7.5206 295° West  Level FlightAware Approximate
06:42AM 50.4139 7.3662 295° West  Level FlightAware Approximate
06:43AM 50.4637 7.2151 299° West  Level FlightAware Approximate
06:44AM 50.5168 7.0663 298° West  Level FlightAware Approximate
06:45AM 50.5673 6.9152 298° West  Level FlightAware Approximate
06:46AM 50.6175 6.7637 294° West  Level FlightAware Approximate
06:47AM 50.6622 6.6078 294° West  Level FlightAware Approximate
06:48AM 50.7067 6.4516 294° West  Level FlightAware Approximate
06:49AM 50.7510 6.2970 298° West  Level FlightAware Approximate
06:50AM 50.8017 6.1453 298° West  Level FlightAware Approximate
06:51AM 50.8501 5.9916 294° West  Level FlightAware Approximate
06:52AM 50.8949 5.8350 294° West  Level FlightAware Approximate
06:53AM 50.9402 5.6787 297° West  Level FlightAware Approximate
06:54AM 50.9898 5.5254 297° West  Level FlightAware Approximate
06:54AM 51.3600 6.3320 297° West 403 464 34,000  Level FlightAware
06:55AM 51.0391 5.3718 297° West  Level FlightAware Approximate
06:55AM 51.4090 6.2520 314° West 403 464 34,000  Level FlightAware
06:56AM 51.4600 6.1690 315° West 403 464 34,000  Level FlightAware
06:56AM 51.5240 6.0630 314° West 403 464 34,000  Level FlightAware
06:57AM 51.5760 5.9770 314° West 403 464 34,000  Level FlightAware
06:58AM 51.6170 5.9090 314° West 403 464 34,000  Level FlightAware
06:58AM 51.6830 5.7990 314° West 402 463 34,000  Level FlightAware
06:59AM 51.7360 5.7100 314° West 403 464 34,000  Level FlightAware
07:00AM 51.7760 5.6430 314° West 403 464 34,000  Level FlightAware
07:00AM 51.8430 5.5300 314° West 402 463 34,000 -1,140 Level FlightAware
07:01AM 51.8852 5.4462 314° West 466 536 32,500  Descending FlightAware UK
07:01AM 51.8950 5.4430 314° West 403 464 34,000  Climbing FlightAware
07:02AM 51.9357 5.3704 314° West 468 539 32,500  Descending FlightAware UK
07:02AM 51.9430 5.3600 314° West 403 464 34,000  Climbing FlightAware
07:02AM 51.9743 5.3041 314° West 468 539 32,500 -2,160 Descending FlightAware UK
07:02AM 52.0044 5.2506 312° West 470 541 32,500 3,300 Level FlightAware UK
07:03AM 52.0020 5.2600 312° West 405 466 34,000 1,860 Climbing FlightAware
07:03AM 52.0620 5.1570 313° West 406 467 34,000 -1,200 Level FlightAware
07:04AM 52.1052 5.0788 313° West 470 541 32,500  Descending FlightAware UK
07:04AM 52.1140 5.0680 313° West 406 467 34,000  Climbing FlightAware
07:04AM 52.1516 4.9990 313° West 468 539 32,500  Descending FlightAware UK
07:05AM 52.1720 4.9670 313° West 406 467 34,000  Climbing FlightAware
07:05AM 52.1979 4.9190 313° West 468 539 32,500  Descending FlightAware UK
07:05AM 52.2250 4.8750 313° West 406 467 34,000  Climbing FlightAware
07:06AM 52.2510 4.8246 313° West 468 539 32,500 -2,460 Descending FlightAware UK
07:06AM 52.2738 4.7842 313° West 468 539 32,500 4,260 Level FlightAware UK
07:06AM 52.2750 4.7890 313° West 406 467 34,000  Climbing FlightAware
07:06AM 52.2981 4.7451 313° West 468 539 32,500  Descending FlightAware UK
07:07AM 52.3330 4.6880 313° West 407 468 34,000  Climbing FlightAware
07:07AM 52.3584 4.6365 313° West 470 541 32,500  Descending FlightAware UK
07:07AM 52.3830 4.6000 313° West 407 468 34,000  Climbing FlightAware
07:08AM 52.4135 4.5438 313° West 470 541 32,500 -2,400 Descending FlightAware UK
07:08AM 52.4364 4.5029 313° West 470 541 32,500 4,500 Level FlightAware UK
07:08AM 52.4350 4.5090 313° West 408 470 34,000  Climbing FlightAware
07:08AM 52.4596 4.4622 313° West 470 541 32,500 -2,280 Descending FlightAware UK
07:09AM 52.4916 4.4084 314° West 468 539 32,500 3,060 Level FlightAware UK
07:09AM 52.4910 4.4100 314° West 409 471 34,000 1,980 Climbing FlightAware
07:10AM 52.5410 4.3230 313° West 409 471 34,000  Level FlightAware
07:10AM 52.6000 4.2160 312° West 408 470 34,000  Level FlightAware
07:11AM 52.6520 4.1250 313° West 407 468 34,000 -1,380 Level FlightAware
07:11AM 52.6895 4.0527 313° West 470 541 32,500  Descending FlightAware UK
07:12AM 52.7010 4.0360 313° West 408 470 34,000  Climbing FlightAware
07:12AM 52.7352 3.9705 313° West 470 541 32,500  Descending FlightAware UK
07:12AM 52.7570 3.9320 313° West 403 464 34,000  Climbing FlightAware
07:13AM 52.7835 3.8689 313° West 468 539 32,500 -2,460 Descending FlightAware UK
07:13AM 52.8005 3.8221 301° West 468 539 32,500 4,260 Level FlightAware UK
07:13AM 52.8000 3.8250 301° West 398 458 34,000  Climbing FlightAware
07:13AM 52.8254 3.7414 301° West 470 541 32,500  Descending FlightAware UK
07:14AM 52.8350 3.7170 301° West 398 458 34,000  Climbing FlightAware
07:14AM 52.8509 3.6608 301° West 470 541 32,500  Descending FlightAware UK
07:14AM 52.8740 3.5930 301° West 397 457 34,000  Climbing FlightAware
07:15AM 52.8965 3.5152 301° West 470 541 32,500  Descending FlightAware UK
07:15AM 52.9010 3.5060 301° West 397 457 34,000 1,500 Climbing FlightAware
07:16AM 52.9450 3.3660 298° West 397 457 34,000  Level FlightAware
07:17AM 52.9790 3.2540 297° West 397 457 34,000 -1,680 Level FlightAware
07:17AM 52.9913 3.2070 297° West 472 543 32,500  Descending FlightAware UK
07:17AM 53.0070 3.1640 297° West 397 457 34,000  Climbing FlightAware
07:18AM 53.0313 3.0769 297° West 470 541 32,500  Descending FlightAware UK
07:18AM 53.0480 3.0310 297° West 395 455 34,000 1,440 Climbing FlightAware
07:19AM 53.0810 2.9210 297° West 396 456 34,000 -1,620 Level FlightAware
07:19AM 53.0955 2.8658 297° West 468 539 32,500  Descending FlightAware UK
07:19AM 53.1140 2.8130 297° West 397 457 34,000  Climbing FlightAware
07:20AM 53.1348 2.7354 297° West 470 541 32,500  Descending FlightAware UK
07:20AM 53.1510 2.6910 297° West 395 455 34,000  Climbing FlightAware
07:20AM 53.1741 2.6050 297° West 470 541 32,500  Descending FlightAware UK
07:21AM 53.1830 2.5850 297° West 394 453 34,000  Climbing FlightAware
07:21AM 53.1985 2.5239 297° West 470 541 32,500 -2,580 Descending FlightAware UK
07:21AM 53.2086 2.4732 288° West 470 541 32,500 3,180 Level FlightAware UK
07:21AM 53.2150 2.4520 288° West 385 443 34,000  Climbing FlightAware
07:22AM 53.2226 2.3880 288° West 468 539 32,500 -2,460 Descending FlightAware UK
07:22AM 53.2302 2.3363 284° West 468 539 32,500 4,260 Level FlightAware UK
07:22AM 53.2310 2.3430 284° West 382 440 34,000  Climbing FlightAware
07:22AM 53.2399 2.2675 284° West 468 539 32,500  Descending FlightAware UK
07:23AM 53.2510 2.2100 284° West 382 440 34,000  Climbing FlightAware
07:23AM 53.2622 2.1127 284° West 464 534 32,500  Descending FlightAware UK
07:24AM 53.2670 2.0970 284° West 382 440 34,000  Climbing FlightAware
07:24AM 53.2746 2.0265 284° West 468 539 32,500 -2,400 Descending FlightAware UK
07:24AM 53.2819 1.9749 283° West 468 539 32,500 3,600 Level FlightAware UK
07:24AM 53.2850 1.9700 283° West 382 440 34,000  Climbing FlightAware
07:25AM 53.2918 1.9059 283° West 466 536 32,500  Descending FlightAware UK
07:25AM 53.3020 1.8560 283° West 382 440 34,000  Climbing FlightAware
07:25AM 53.3138 1.7515 283° West 470 541 32,500  Descending FlightAware UK
07:26AM 53.3200 1.7260 283° West 383 441 34,000 3,420 Climbing FlightAware
07:26AM 53.3259 1.6850 284° West 383 441 34,000 -3,240 Level FlightAware ADS-B
07:26AM 53.3308 1.6309 284° West 470 541 32,500  Descending FlightAware UK
07:26AM 53.3395 1.5885 284° West 382 440 34,000  Climbing FlightAware ADS-B
07:27AM 53.3452 1.5274 284° West 470 541 32,500  Descending FlightAware UK
07:27AM 53.3520 1.4992 284° West 382 440 34,000  Climbing FlightAware ADS-B
07:27AM 53.3572 1.4407 284° West 470 541 32,500  Descending FlightAware UK
07:28AM 53.3681 1.3819 284° West 381 438 34,000  Climbing FlightAware ADS-B
07:28AM 53.3737 1.3211 284° West 472 543 32,500 -2,520 Descending FlightAware UK
07:28AM 53.3807 1.2703 283° West 470 541 32,500 3,060 Level FlightAware UK
07:28AM 53.3850 1.2570 283° West 380 437 34,000  Climbing FlightAware
07:29AM 53.3925 1.1840 283° West 470 541 32,500  Descending FlightAware UK
07:29AM 53.4020 1.1370 283° West 378 435 34,000 1,320 Climbing FlightAware
07:30AM 53.4190 1.0120 283° West 377 434 34,000 -1,440 Level FlightAware
07:30AM 53.4248 0.9449 283° West 468 539 32,500 -2,520 Descending FlightAware UK
07:30AM 53.4316 0.8936 283° West 470 541 32,500 4,080 Level FlightAware UK
07:31AM 53.4340 0.9020 283° West 377 434 34,000  Climbing FlightAware
07:31AM 53.4429 0.8087 283° West 468 539 32,500  Descending FlightAware UK
07:31AM 53.4500 0.7750 283° West 378 435 34,000 1,620 Climbing FlightAware
07:32AM 53.4640 0.6690 283° West 378 435 34,000 -1,560 Level FlightAware
07:32AM 53.4723 0.5854 283° West 468 539 32,500  Descending FlightAware UK
07:33AM 53.4810 0.5420 283° West 377 434 34,000 1,320 Climbing FlightAware
07:33AM 53.4980 0.4140 283° West 378 435 34,000  Level FlightAware
07:34AM 53.5039 0.3638 281° West 379 436 34,000 -3,120 Level FlightAware ADS-B
07:34AM 53.5077 0.3114 281° West 470 541 32,500  Descending FlightAware UK
07:34AM 53.5151 0.2767 281° West 377 434 34,000  Climbing FlightAware ADS-B
07:34AM 53.5209 0.2081 281° West 470 541 32,500  Descending FlightAware UK
07:35AM 53.5266 0.1869 281° West 377 434 34,000 2,100 Climbing FlightAware ADS-B
07:35AM 53.5378 0.0990 282° West 377 434 34,000 -1,680 Level FlightAware ADS-B
07:36AM 53.5445 0.0195 282° West 470 541 32,500  Descending FlightAware UK
07:36AM 53.5494 0.0053 282° West 376 433 34,000 2,280 Climbing FlightAware ADS-B
07:36AM 53.5580 -0.0670 281° West 375 432 34,000  Level FlightAware
07:36AM 53.5611 -0.0883 284° West 377 434 34,000 -3,360 Level FlightAware ADS-B
07:37AM 53.5681 -0.1693 284° West 470 541 32,500  Descending FlightAware UK
07:37AM 53.5719 -0.1756 284° West 376 433 34,000  Climbing FlightAware ADS-B
07:37AM 53.5848 -0.3060 284° West 468 539 32,500  Descending FlightAware UK
07:38AM 53.5870 -0.2990 284° West 375 432 34,000  Climbing FlightAware
07:38AM 53.5974 -0.4091 284° West 466 536 32,500  Descending FlightAware UK
07:38AM 53.6010 -0.4090 284° West 375 432 34,000  Climbing FlightAware
07:38AM 53.6058 -0.4780 284° West 464 534 32,500 -2,760 Descending FlightAware UK
07:39AM 53.6120 -0.5297 281° West 464 534 32,500 3,000 Level FlightAware UK
07:39AM 53.6170 -0.5410 281° West 378 435 34,000 2,520 Climbing FlightAware
07:39AM 53.6256 -0.6185 281° West 380 437 34,000 -2,160 Level FlightAware ADS-B
07:40AM 53.6307 -0.6849 281° West 468 539 32,500  Descending FlightAware UK
07:40AM 53.6402 -0.7404 281° West 382 440 34,000 -120 Climbing FlightAware ADS-B
07:41AM 53.6512 -0.8601 281° West 464 534 32,400 60 Descending FlightAware UK
07:41AM 53.6600 -0.9100 281° West 381 438 34,100 2,100 Climbing FlightAware
07:41AM 53.6677 -0.9759 281° West 384 442 34,000 -2,880 Descending FlightAware ADS-B
07:42AM 53.6717 -1.0350 281° West 470 541 32,400  Descending FlightAware UK
07:42AM 53.6788 -1.0714 281° West 383 441 34,000 1,920 Climbing FlightAware ADS-B
07:42AM 53.6895 -1.1648 281° West 383 441 34,000  Level FlightAware ADS-B
07:43AM 53.7017 -1.2715 281° West 384 442 34,000  Level FlightAware ADS-B
07:44AM 53.7135 -1.3764 281° West 384 442 34,000 -1,740 Level FlightAware ADS-B
07:44AM 53.7177 -1.4390 281° West 464 534 32,500  Descending FlightAware UK
07:45AM 53.7290 -1.5150 281° West 383 441 34,000 2,100 Climbing FlightAware
07:45AM 53.7326 -1.5481 280° West 384 442 34,000  Level FlightAware ADS-B
07:45AM 53.7430 -1.6430 281° West 386 444 34,000  Level FlightAware
07:46AM 53.7496 -1.7029 281° West 384 442 34,000 -2,400 Level FlightAware ADS-B
07:46AM 53.7552 -1.7755 281° West 474 545 32,500  Descending FlightAware UK
07:46AM 53.7609 -1.8068 281° West 387 445 34,000  Climbing FlightAware ADS-B
07:46AM 53.7667 -1.8824 281° West 474 545 32,500  Descending FlightAware UK
07:47AM 53.7712 -1.9018 281° West 388 447 34,000  Climbing FlightAware ADS-B
07:47AM 53.7819 -2.0250 281° West 474 545 32,500  Descending FlightAware UK
07:47AM 53.7830 -2.0170 281° West 388 447 34,000  Climbing FlightAware
07:48AM 53.7877 -2.0794 281° West 474 545 32,500 -2,760 Descending FlightAware UK
07:48AM 53.7934 -2.1328 280° West 470 541 32,500 3,000 Level FlightAware UK
07:48AM 53.7970 -2.1450 280° West 384 442 34,000  Climbing FlightAware
07:48AM 53.8027 -2.2211 280° West 476 548 32,500 -2,520 Descending FlightAware UK
07:49AM 53.8083 -2.2744 280° West 478 550 32,500 4,080 Level FlightAware UK
07:49AM 53.8090 -2.2650 280° West 385 443 34,000  Climbing FlightAware
07:49AM 53.8195 -2.3810 280° West 476 548 32,500  Descending FlightAware UK
07:49AM 53.8230 -2.3930 280° West 382 440 34,000  Climbing FlightAware
07:50AM 53.8303 -2.4866 280° West 466 536 32,500  Descending FlightAware UK
07:50AM 53.8350 -2.5100 280° West 375 432 34,000 1,500 Climbing FlightAware
07:51AM 53.8470 -2.6260 280° West 376 433 34,000 -1,200 Level FlightAware
07:51AM 53.8584 -2.7632 280° West 468 539 32,500  Descending FlightAware UK
07:51AM 53.8580 -2.7430 280° West 376 433 34,000  Climbing FlightAware
07:52AM 53.8638 -2.8155 280° West 472 543 32,500 -2,700 Descending FlightAware UK
07:52AM 53.8690 -2.8678 280° West 472 543 32,500 3,060 Level FlightAware UK
07:52AM 53.8710 -2.8730 280° West 377 434 34,000  Climbing FlightAware
07:53AM 53.8828 -3.0073 280° West 462 532 32,500  Descending FlightAware UK
07:53AM 53.8840 -3.0050 280° West 375 432 34,000  Climbing FlightAware
07:53AM 53.8894 -3.0763 280° West 464 534 32,500 -2,700 Descending FlightAware UK
07:54AM 53.8945 -3.1286 279° West 466 536 32,500 3,720 Level FlightAware UK
07:54AM 53.8950 -3.1210 279° West 378 435 34,000  Climbing FlightAware
07:54AM 53.9014 -3.1986 279° West 464 534 32,500 -2,520 Descending FlightAware UK
07:54AM 53.9065 -3.2508 279° West 466 536 32,500 4,080 Level FlightAware UK
07:54AM 53.9060 -3.2330 279° West 380 437 34,000  Climbing FlightAware
07:55AM 53.9133 -3.3220 279° West 470 541 32,500 -2,400 Descending FlightAware UK
07:55AM 53.9184 -3.3747 279° West 472 543 32,500 3,600 Level FlightAware UK
07:55AM 53.9180 -3.3620 279° West 382 440 34,000  Climbing FlightAware
07:55AM 53.9251 -3.4460 279° West 472 543 32,500  Descending FlightAware UK
07:56AM 53.9310 -3.4930 279° West 384 442 34,000  Climbing FlightAware
07:56AM 53.9368 -3.5704 279° West 472 543 32,500 -2,100 Descending FlightAware UK
07:56AM 53.9434 -3.6417 279° West 472 543 32,500 3,420 Level FlightAware UK
07:56AM 53.9430 -3.6240 279° West 383 441 34,000  Climbing FlightAware
07:57AM 53.9498 -3.7129 279° West 470 541 32,500  Descending FlightAware UK
07:57AM 53.9520 -3.7240 281° West 385 443 34,000  Climbing FlightAware
07:57AM 53.9561 -3.7661 281° West 468 539 32,500 -3,960 Descending FlightAware UK
07:57AM 53.9644 -3.8194 281° West 472 543 32,500  Level FlightAware UK
07:58AM 53.9750 -3.8719 289° West 476 548 32,500 4,080 Level FlightAware UK
07:58AM 53.9760 -3.8600 289° West 399 459 34,000  Climbing FlightAware
07:58AM 53.9925 -3.9408 289° West 474 545 32,500 -2,460 Descending FlightAware UK
07:58AM 54.0050 -3.9919 293° West 472 543 32,500 3,600 Level FlightAware UK
07:59AM 54.0070 -3.9860 293° West 397 457 34,000  Climbing FlightAware
07:59AM 54.0426 -4.1277 293° West 470 541 32,500  Descending FlightAware UK
07:59AM 54.0380 -4.0970 293° West 400 460 34,000  Climbing FlightAware
08:00AM 54.0624 -4.1954 293° West 468 539 32,500  Descending FlightAware UK
08:00AM 54.0770 -4.2290 293° West 402 463 34,000 1,440 Climbing FlightAware
08:01AM 54.1080 -4.3360 296° West 405 466 34,000 -1,440 Level FlightAware
08:01AM 54.1320 -4.4341 296° West 472 543 32,500  Descending FlightAware UK
08:01AM 54.1430 -4.4580 296° West 405 466 34,000  Climbing FlightAware
08:02AM 54.1662 -4.5548 296° West 470 541 32,500 -2,100 Descending FlightAware UK
08:02AM 54.1808 -4.6067 296° West 470 541 32,500 4,500 Level FlightAware UK
08:02AM 54.1780 -4.5830 296° West 406 467 34,000  Climbing FlightAware
08:02AM 54.1953 -4.6587 296° West 472 543 32,500 -2,700 Descending FlightAware UK
08:03AM 54.2098 -4.7110 295° West 472 543 32,500 3,720 Level FlightAware UK
08:03AM 54.2110 -4.7020 295° West 408 470 34,000  Climbing FlightAware
08:03AM 54.2293 -4.7807 295° West 474 545 32,500 -2,520 Descending FlightAware UK
08:03AM 54.2439 -4.8332 296° West 476 548 32,500 4,080 Level FlightAware UK
08:03AM 54.2440 -4.8190 296° West 409 471 34,000  Climbing FlightAware
08:04AM 54.2634 -4.9032 296° West 474 545 32,500 -2,400 Descending FlightAware UK
08:04AM 54.2779 -4.9557 295° West 472 543 32,500 3,600 Level FlightAware UK
08:04AM 54.2790 -4.9470 295° West 408 470 34,000  Climbing FlightAware
08:04AM 54.3006 -5.0232 295° West 472 543 32,500 -2,580 Descending FlightAware UK
08:05AM 54.3208 -5.0713 306° West 474 545 32,500 3,900 Level FlightAware UK
08:05AM 54.3200 -5.0550 306° West 422 486 34,000  Climbing FlightAware
08:05AM 54.3490 -5.1355 306° West 474 545 32,500 -2,460 Descending FlightAware UK
08:05AM 54.3702 -5.1836 307° West 476 548 32,500 3,420 Level FlightAware UK
08:06AM 54.3760 -5.1820 307° West 423 487 34,000  Climbing FlightAware
08:06AM 54.3983 -5.2480 307° West 474 545 32,500 -2,700 Descending FlightAware UK
08:06AM 54.4192 -5.2965 307° West 474 545 32,500  Level FlightAware UK
08:06AM 54.4401 -5.3450 307° West 474 545 32,500 4,260 Level FlightAware UK
08:06AM 54.4380 -5.3260 307° West 424 488 34,000  Climbing FlightAware
08:07AM 54.4611 -5.3935 307° West 474 545 32,500 -2,760 Descending FlightAware UK
08:07AM 54.4820 -5.4422 307° West 476 548 32,500 3,600 Level FlightAware UK
08:07AM 54.4850 -5.4360 307° West 423 487 34,000  Climbing FlightAware
08:07AM 54.5097 -5.5073 307° West 472 543 32,500 -2,580 Descending FlightAware UK
08:08AM 54.5304 -5.5562 306° West 474 545 32,500 3,180 Level FlightAware UK
08:08AM 54.5370 -5.5590 306° West 422 486 34,000  Climbing FlightAware
08:08AM 54.5646 -5.6378 306° West 476 548 32,500 -2,400 Descending FlightAware UK
08:09AM 54.5849 -5.6870 305° West 476 548 32,500 4,500 Level FlightAware UK
08:09AM 54.5820 -5.6690 305° West 417 480 34,000  Climbing FlightAware
08:09AM 54.6015 -5.7385 305° West 474 545 32,500 -2,700 Descending FlightAware UK
08:09AM 54.6168 -5.7915 297° West 472 543 32,500 3,060 Level FlightAware UK
08:09AM 54.6200 -5.7930 297° West 410 472 34,000  Climbing FlightAware
08:10AM 54.6395 -5.8809 297° West 470 541 32,500 -2,460 Descending FlightAware UK
08:10AM 54.6536 -5.9346 295° West 470 541 32,500 4,260 Level FlightAware UK
08:10AM 54.6510 -5.9150 295° West 410 472 34,000  Climbing FlightAware
08:10AM 54.6675 -5.9879 295° West 470 541 32,500 -2,760 Descending FlightAware UK
08:11AM 54.6815 -6.0417 294° West 468 539 32,500  Level FlightAware UK
08:11AM 54.6951 -6.0961 293° West 470 541 32,500  Level FlightAware UK
08:11AM 54.7081 -6.1498 293° West 472 543 32,500  Level FlightAware UK
08:11AM 54.7217 -6.2046 293° West 476 548 32,500 2,880 Level FlightAware UK
08:12AM 54.7260 -6.2110 293° West 415 478 34,000  Climbing FlightAware
08:12AM 54.7440 -6.2956 293° West 474 545 32,500 -2,580 Descending FlightAware UK
08:12AM 54.7576 -6.3502 293° West 474 545 32,500 3,900 Level FlightAware UK
08:12AM 54.7560 -6.3320 293° West 416 479 34,000  Climbing FlightAware
08:13AM 54.7800 -6.4414 293° West 476 548 32,500  Descending FlightAware UK
08:13AM 54.7860 -6.4540 293° West 415 478 34,000  Climbing FlightAware
08:13AM 54.8025 -6.5326 293° West 478 550 32,500 -2,760 Descending FlightAware UK
08:14AM 54.8160 -6.5875 293° West 476 548 32,500 3,000 Level FlightAware UK
08:14AM 54.8190 -6.5900 293° West 413 475 34,000  Climbing FlightAware
08:14AM 54.8382 -6.6789 293° West 476 548 32,500 -2,520 Descending FlightAware UK
08:14AM 54.8515 -6.7334 293° West 470 541 32,500 3,300 Level FlightAware UK
08:14AM 54.8530 -6.7270 293° West 411 473 34,000  Climbing FlightAware
08:15AM 54.8691 -6.8059 293° West 466 536 32,500 -2,760 Descending FlightAware UK
08:15AM 54.8822 -6.8601 293° West 464 534 32,500 3,600 Level FlightAware UK
08:15AM 54.8820 -6.8480 293° West 407 468 34,000  Climbing FlightAware
08:15AM 54.8996 -6.9327 293° West 466 536 32,500 -2,580 Descending FlightAware UK
08:16AM 54.9127 -6.9874 293° West 468 539 32,500 3,900 Level FlightAware UK
08:16AM 54.9120 -6.9720 293° West 413 475 34,000  Climbing FlightAware
08:16AM 54.9303 -7.0608 293° West 472 543 32,500 -2,460 Descending FlightAware UK
08:16AM 54.9436 -7.1161 293° West 472 543 32,500 4,260 Level FlightAware UK
08:16AM 54.9420 -7.1000 293° West 417 480 34,000  Climbing FlightAware
08:17AM 54.9569 -7.1719 293° West 474 545 32,500 -2,760 Descending FlightAware UK
08:17AM 54.9701 -7.2278 292° West 474 545 32,500 3,000 Level FlightAware UK
08:17AM 54.9750 -7.2370 292° West 418 481 34,000  Climbing FlightAware
08:18AM 54.9921 -7.3208 292° West 478 550 32,500 -2,520 Descending FlightAware UK
08:18AM 55.0053 -7.3765 292° West 476 548 32,500 3,300 Level FlightAware UK
08:18AM 55.0080 -7.3790 292° West 414 476 34,000  Climbing FlightAware
08:18AM 55.0226 -7.4501 292° West 476 548 32,500 -2,760 Descending FlightAware UK
08:19AM 55.0357 -7.5056 292° West 476 548 32,500 3,600 Level FlightAware UK
08:19AM 55.0370 -7.5020 292° West 411 473 34,000  Climbing FlightAware
08:19AM 55.0530 -7.5795 292° West 474 545 32,500 -2,580 Descending FlightAware UK
08:19AM 55.0660 -7.6348 292° West 472 543 32,500 3,900 Level FlightAware UK
08:19AM 55.0660 -7.6250 292° West 410 472 34,000  Climbing FlightAware
08:20AM 55.0832 -7.7085 292° West 470 541 32,500 -2,460 Descending FlightAware UK
08:20AM 55.0959 -7.7638 292° West 472 543 32,500 3,420 Level FlightAware UK
08:20AM 55.0980 -7.7630 292° West 411 473 34,000  Climbing FlightAware
08:20AM 55.1129 -7.8377 292° West 468 539 32,500 -2,700 Descending FlightAware UK
08:21AM 55.1256 -7.8932 292° West 462 532 32,500 3,720 Level FlightAware UK
08:21AM 55.1270 -7.8870 292° West 411 473 34,000  Climbing FlightAware
08:21AM 55.1427 -7.9673 292° West 462 532 32,500 -2,520 Descending FlightAware UK
08:21AM 55.1553 -8.0230 292° West 464 534 32,500 3,300 Level FlightAware UK
08:21AM 55.1590 -8.0260 292° West 414 476 34,000  Climbing FlightAware
08:22AM 55.1723 -8.0978 292° West 466 536 32,500 -2,760 Descending FlightAware UK
08:22AM 55.1851 -8.1543 292° West 470 541 32,500 4,500 Level FlightAware UK
08:22AM 55.1830 -8.1340 292° West 418 481 34,000  Climbing FlightAware
08:22AM 55.1982 -8.2113 292° West 476 548 32,500 -2,700 Descending FlightAware UK
08:23AM 55.2112 -8.2683 292° West 476 548 32,500 2,640 Level FlightAware UK
08:23AM 55.2190 -8.2920 292° West 418 481 34,000  Climbing FlightAware
08:23AM 55.2368 -8.3820 292° West 468 539 32,500  Descending FlightAware UK
08:24AM 55.2480 -8.4180 292° West 418 481 34,000  Climbing FlightAware
08:24AM 55.2622 -8.4958 292° West 468 539 32,500 -2,700 Descending FlightAware UK
08:24AM 55.2750 -8.5527 292° West 470 541 32,500 3,720 Level FlightAware UK
08:24AM 55.2750 -8.5430 292° West 420 483 34,000  Climbing FlightAware
08:25AM 55.2919 -8.6290 292° West 472 543 32,500 -2,520 Descending FlightAware UK
08:25AM 55.3046 -8.6863 291° West 472 543 32,500 3,300 Level FlightAware UK
08:25AM 55.3070 -8.6860 291° West 422 486 34,000  Climbing FlightAware
08:25AM 55.3257 -8.7814 291° West 474 545 32,500  Descending FlightAware UK
08:26AM 55.3350 -8.8130 291° West 422 486 34,000  Climbing FlightAware
08:26AM 55.3552 -8.9161 291° West 474 545 32,500  Descending FlightAware UK
08:26AM 55.3640 -8.9410 291° West 421 484 34,000  Climbing FlightAware
08:26AM 55.3678 -8.9738 291° West 474 545 32,500  Descending FlightAware UK
08:27AM 55.3960 -9.0880 291° West 421 484 34,000 1,080 Climbing FlightAware
08:28AM 55.4200 -9.2020 290° West 421 484 34,000  Level FlightAware
08:28AM 55.4550 -9.3620 291° West 424 488 34,000  Level FlightAware
08:29AM 55.4760 -9.4600 291° West 425 489 34,000  Level FlightAware
08:30AM 55.5090 -9.6170 290° West 426 490 34,000  Level FlightAware
08:30AM 55.5380 -9.7520 291° West 425 489 34,000  Level FlightAware
08:31AM 55.5790 -9.9470 290° West 426 490 34,000  Level FlightAware
08:32AM 55.6090 -10.0930 290° West 426 490 34,000  Level FlightAware
08:33AM 55.6370 -10.2250 291° West 426 490 34,000  Level FlightAware
08:34AM 55.6620 -10.3510 289° West 426 490 34,000  Level FlightAware
08:34AM 55.6930 -10.5010 290° West 426 490 34,000  Level FlightAware
08:35AM 55.7200 -10.6340 290° West 426 490 34,000  Level FlightAware
08:36AM 55.7550 -10.8090 290° West 422 486 34,000  Level FlightAware
08:37AM 55.7850 -10.9570 290° West 420 483 34,000  Level FlightAware
08:37AM 55.8080 -11.0750 289° West 420 483 34,000  Level FlightAware
08:38AM 55.8400 -11.2390 289° West 420 483 34,000  Level FlightAware
08:39AM 55.8660 -11.3700 290° West 420 483 34,000  Level FlightAware
08:39AM 55.8880 -11.4840 289° West 421 484 34,000  Level FlightAware
08:40AM 55.9200 -11.6490 289° West 421 484 34,000  Level FlightAware
08:41AM 55.9370 -11.7410 288° West 420 483 34,000  Level FlightAware
08:41AM 55.9600 -11.8760 287° West 420 483 34,000  Level FlightAware
08:42AM 55.9840 -12.0170 287° West 420 483 34,000  Level FlightAware
08:43AM 56.0040 -12.1300 288° West 420 483 34,000  Level FlightAware
08:44AM 56.0230 -12.2430 287° West 420 483 34,000  Level FlightAware
08:44AM 56.0420 -12.3560 287° West 420 483 34,000  Level FlightAware
08:45AM 56.0620 -12.4690 288° West 420 483 34,000  Level FlightAware
08:46AM 56.0860 -12.6110 287° West 420 483 34,000  Level FlightAware
08:46AM 56.1050 -12.7240 287° West 420 483 34,000  Level FlightAware
08:47AM 56.1240 -12.8380 287° West 420 483 34,000  Level FlightAware
08:48AM 56.1440 -12.9510 288° West 420 483 34,000  Level FlightAware
08:48AM 56.1630 -13.0640 287° West 420 483 34,000  Level FlightAware
08:49AM 56.1870 -13.2060 287° West 420 483 34,000  Level FlightAware
08:50AM 56.2060 -13.3200 287° West 420 483 34,000  Level FlightAware
08:51AM 56.2260 -13.4330 288° West 420 483 34,000  Level FlightAware
08:53AM 56.2435 -13.8309 275° West  Level Estimated
08:54AM 56.2520 -14.0334 274° West  Level Estimated
08:55AM 56.2601 -14.2360 274° West  Level Estimated
08:56AM 56.2678 -14.4387 274° West  Level Estimated
08:57AM 56.2753 -14.6414 274° West  Level Estimated
08:58AM 56.2824 -14.8442 274° West  Level Estimated
08:59AM 56.2891 -15.0471 274° West  Level Estimated
09:00AM 56.2956 -15.2501 273° West  Level Estimated
09:01AM 56.3017 -15.4531 273° West  Level Estimated
09:02AM 56.3076 -15.6629 273° West  Level Estimated
09:03AM 56.3133 -15.8729 273° West  Level Estimated
09:04AM 56.3185 -16.0829 273° West  Level Estimated
09:05AM 56.3234 -16.2929 272° West  Level Estimated
09:06AM 56.3279 -16.5030 272° West  Level Estimated
09:07AM 56.3321 -16.7131 272° West  Level Estimated
09:08AM 56.3360 -16.9233 272° West  Level Estimated
09:09AM 56.3394 -17.1336 272° West  Level Estimated
09:10AM 56.3425 -17.3438 272° West  Level Estimated
09:11AM 56.3453 -17.5541 271° West  Level Estimated
09:12AM 56.3477 -17.7644 271° West  Level Estimated
09:13AM 56.3498 -17.9748 271° West  Level Estimated
09:14AM 56.3515 -18.1851 271° West  Level Estimated
09:15AM 56.3528 -18.3955 271° West  Level Estimated
09:16AM 56.3538 -18.6059 271° West  Level Estimated
09:17AM 56.3544 -18.8163 270° West  Level Estimated
09:18AM 56.3547 -19.0268 270° West  Level Estimated
09:19AM 56.3546 -19.2372 270° West  Level Estimated
09:20AM 56.3541 -19.4476 270° West  Level Estimated
09:21AM 56.3533 -19.6580 270° West  Level Estimated
09:21AM 57.0000 -20.0000 274° West 435 501 34,000  Level ETMS Enhanced Traffic Management System
09:22AM 56.3522 -19.8684 270° West  Level Estimated
09:23AM 56.3507 -20.0787 269° West  Level Estimated
09:24AM 56.3488 -20.2891 269° West  Level Estimated
09:25AM 56.3466 -20.4994 269° West  Level Estimated
09:26AM 56.3440 -20.7097 269° West  Level Estimated
09:27AM 57.0523 -21.5523 273° West 435 501 34,000  Level FlightAware Transoceanic
09:28AM 57.0583 -21.7744 273° West 435 501 34,000  Level FlightAware Transoceanic
09:29AM 57.0638 -21.9966 273° West 435 501 34,000  Level FlightAware Transoceanic
09:30AM 57.0689 -22.2188 272° West 435 501 34,000  Level FlightAware Transoceanic
09:31AM 57.0736 -22.4411 272° West 435 501 34,000  Level FlightAware Transoceanic
09:32AM 57.0780 -22.6634 272° West 435 501 34,000  Level FlightAware Transoceanic
09:33AM 57.0819 -22.8858 272° West 435 501 34,000  Level FlightAware Transoceanic
09:34AM 57.0854 -23.1082 272° West 435 501 34,000  Level FlightAware Transoceanic
09:35AM 57.0886 -23.3307 271° West 435 501 34,000  Level FlightAware Transoceanic
09:36AM 57.0914 -23.5532 271° West 435 501 34,000  Level FlightAware Transoceanic
09:37AM 57.0937 -23.7757 271° West 435 501 34,000  Level FlightAware Transoceanic
09:38AM 57.0957 -23.9983 271° West 435 501 34,000  Level FlightAware Transoceanic
09:39AM 57.0973 -24.2209 271° West 435 501 34,000  Level FlightAware Transoceanic
09:40AM 57.0985 -24.4435 270° West 435 501 34,000  Level FlightAware Transoceanic
09:41AM 57.0993 -24.6661 270° West 435 501 34,000  Level FlightAware Transoceanic
09:42AM 57.0997 -24.8887 270° West 435 501 34,000  Level FlightAware Transoceanic
09:43AM 57.0997 -25.1113 270° West 435 501 34,000  Level FlightAware Transoceanic
09:44AM 57.0993 -25.3339 270° West 435 501 34,000  Level FlightAware Transoceanic
09:45AM 57.0985 -25.5565 270° West 435 501 34,000  Level FlightAware Transoceanic
09:46AM 57.0973 -25.7791 269° West 435 501 34,000  Level FlightAware Transoceanic
09:47AM 57.0957 -26.0017 269° West 435 501 34,000  Level FlightAware Transoceanic
09:48AM 57.0937 -26.2243 269° West 435 501 34,000  Level FlightAware Transoceanic
09:49AM 57.0914 -26.4468 269° West 435 501 34,000  Level FlightAware Transoceanic
09:50AM 57.0886 -26.6693 269° West 435 501 34,000  Level FlightAware Transoceanic
09:51AM 57.0854 -26.8918 268° West 435 501 34,000  Level FlightAware Transoceanic
09:52AM 57.0819 -27.1142 268° West 435 501 34,000  Level FlightAware Transoceanic
09:53AM 57.0780 -27.3366 268° West 435 501 34,000  Level FlightAware Transoceanic
09:54AM 57.0736 -27.5589 268° West 435 501 34,000  Level FlightAware Transoceanic
09:55AM 57.0689 -27.7812 268° West 435 501 34,000  Level FlightAware Transoceanic
09:56AM 57.0638 -28.0034 267° West 435 501 34,000  Level FlightAware Transoceanic
09:57AM 57.0583 -28.2256 267° West 435 501 34,000  Level FlightAware Transoceanic
09:58AM 57.0523 -28.4477 267° West 435 501 34,000  Level FlightAware Transoceanic
09:59AM 57.0461 -28.6697 267° West 435 501 34,000  Level FlightAware Transoceanic
10:00AM 57.0393 -28.8916 267° West 435 501 34,000  Level FlightAware Transoceanic
10:01AM 57.0323 -29.1135 267° West 435 501 34,000  Level FlightAware Transoceanic
10:02AM 57.0248 -29.3353 266° West 435 501 34,000  Level FlightAware Transoceanic
10:03AM 57.0169 -29.5569 266° West 435 501 34,000  Level FlightAware Transoceanic
10:04AM 57.0087 -29.7785 266° West 435 501 34,000  Level FlightAware Transoceanic
10:05AM 57.0005 -29.9871 266° West  Level FlightAware Approximate
10:05AM 57.0000 -30.0000 264° West 448 516 34,000  Level ETMS Enhanced Traffic Management System
10:06AM 56.9921 -30.1956 266° West  Level FlightAware Approximate
10:07AM 56.9893 -30.1821 264° West  Level FlightAware Approximate
10:08AM 56.9768 -30.3899 264° West  Level FlightAware Approximate
10:09AM 56.9639 -30.5975 264° West  Level FlightAware Approximate
10:10AM 56.9507 -30.8049 263° West  Level FlightAware Approximate
10:11AM 56.9372 -31.0122 263° West  Level FlightAware Approximate
10:12AM 56.8815 -31.8134 262° West 448 516 34,000  Level FlightAware Transoceanic
10:13AM 56.8648 -32.0392 262° West 448 516 34,000  Level FlightAware Transoceanic
10:14AM 56.8478 -32.2648 262° West 448 516 34,000  Level FlightAware Transoceanic
10:15AM 56.8303 -32.4902 262° West 448 516 34,000  Level FlightAware Transoceanic
10:16AM 56.8124 -32.7154 262° West 448 516 34,000  Level FlightAware Transoceanic
10:17AM 56.7942 -32.9404 261° West 448 516 34,000  Level FlightAware Transoceanic
10:18AM 56.7755 -33.1652 261° West 448 516 34,000  Level FlightAware Transoceanic
10:19AM 56.7564 -33.3897 261° West 448 516 34,000  Level FlightAware Transoceanic
10:20AM 56.7369 -33.6140 261° West 448 516 34,000  Level FlightAware Transoceanic
10:21AM 56.7170 -33.8381 261° West 448 516 34,000  Level FlightAware Transoceanic
10:22AM 56.6967 -34.0619 261° West 448 516 34,000  Level FlightAware Transoceanic
10:23AM 56.6760 -34.2855 260° West 448 516 34,000  Level FlightAware Transoceanic
10:24AM 56.6549 -34.5089 260° West 448 516 34,000  Level FlightAware Transoceanic
10:25AM 56.6334 -34.7319 260° West 448 516 34,000  Level FlightAware Transoceanic
10:26AM 56.6115 -34.9548 260° West 448 516 34,000  Level FlightAware Transoceanic
10:27AM 56.5892 -35.1773 260° West 448 516 34,000  Level FlightAware Transoceanic
10:28AM 56.5666 -35.3997 259° West 448 516 34,000  Level FlightAware Transoceanic
10:29AM 56.5435 -35.6217 259° West 448 516 34,000  Level FlightAware Transoceanic
10:30AM 56.5200 -35.8434 259° West 448 516 34,000  Level FlightAware Transoceanic
10:31AM 56.4961 -36.0649 259° West 448 516 34,000  Level FlightAware Transoceanic
10:32AM 56.4719 -36.2862 259° West 448 516 34,000  Level FlightAware Transoceanic
10:33AM 56.4472 -36.5071 258° West 448 516 34,000  Level FlightAware Transoceanic
10:34AM 56.4222 -36.7277 258° West 448 516 34,000  Level FlightAware Transoceanic
10:35AM 56.3967 -36.9480 258° West 448 516 34,000  Level FlightAware Transoceanic
10:36AM 56.3709 -37.1681 258° West 448 516 34,000  Level FlightAware Transoceanic
10:37AM 56.3447 -37.3878 258° West 448 516 34,000  Level FlightAware Transoceanic
10:38AM 56.3181 -37.6073 258° West 448 516 34,000  Level FlightAware Transoceanic
10:39AM 56.2911 -37.8264 257° West 448 516 34,000  Level FlightAware Transoceanic
10:40AM 56.2637 -38.0452 257° West 448 516 34,000  Level FlightAware Transoceanic
10:41AM 56.2359 -38.2637 257° West 448 516 34,000  Level FlightAware Transoceanic
10:42AM 56.2077 -38.4819 257° West 448 516 34,000  Level FlightAware Transoceanic
10:43AM 56.1792 -38.6998 257° West 448 516 34,000  Level FlightAware Transoceanic
10:44AM 56.1503 -38.9173 256° West 448 516 34,000  Level FlightAware Transoceanic
10:45AM 56.1210 -39.1345 256° West 448 516 34,000  Level FlightAware Transoceanic
10:46AM 56.0913 -39.3514 256° West 448 516 34,000  Level FlightAware Transoceanic
10:47AM 56.0612 -39.5679 256° West 448 516 34,000  Level FlightAware Transoceanic
10:48AM 56.0308 -39.7841 256° West 448 516 34,000 240 Level FlightAware Transoceanic
10:49AM 56.0027 -39.9815 256° West  Level FlightAware Approximate
10:50AM 55.9742 -40.1787 256° West  Level FlightAware Approximate
10:50AM 56.0000 -40.0000 255° West 436 502 35,000  Level ETMS Enhanced Traffic Management System
10:51AM 55.9744 -40.1590 254° West  Level FlightAware Approximate
10:52AM 55.9425 -40.3544 254° West  Level FlightAware Approximate
10:53AM 55.9104 -40.5494 254° West  Level FlightAware Approximate
10:54AM 55.8780 -40.7440 254° West  Level FlightAware Approximate
10:55AM 55.8452 -40.9384 253° West  Level FlightAware Approximate
10:56AM 55.7362 -41.6652 254° West 436 502 35,000  Level FlightAware Transoceanic
10:57AM 55.7016 -41.8718 253° West 436 502 35,000  Level FlightAware Transoceanic
10:58AM 55.6667 -42.0779 253° West 436 502 35,000  Level FlightAware Transoceanic
10:59AM 55.6315 -42.2837 253° West 436 502 35,000  Level FlightAware Transoceanic
11:00AM 55.5959 -42.4892 253° West 436 502 35,000  Level FlightAware Transoceanic
11:01AM 55.5600 -42.6942 253° West 436 502 35,000  Level FlightAware Transoceanic
11:02AM 55.5237 -42.8989 253° West 436 502 35,000  Level FlightAware Transoceanic
11:03AM 55.4871 -43.1032 252° West 436 502 35,000  Level FlightAware Transoceanic
11:04AM 55.4501 -43.3072 252° West 436 502 35,000  Level FlightAware Transoceanic
11:05AM 55.4129 -43.5107 252° West 436 502 35,000  Level FlightAware Transoceanic
11:06AM 55.3752 -43.7138 252° West 436 502 35,000  Level FlightAware Transoceanic
11:07AM 55.3373 -43.9166 252° West 436 502 35,000  Level FlightAware Transoceanic
11:08AM 55.2990 -44.1190 252° West 436 502 35,000  Level FlightAware Transoceanic
11:09AM 55.2603 -44.3210 251° West 436 502 35,000  Level FlightAware Transoceanic
11:10AM 55.2214 -44.5226 251° West 436 502 35,000  Level FlightAware Transoceanic
11:11AM 55.1821 -44.7238 251° West 436 502 35,000  Level FlightAware Transoceanic
11:12AM 55.1425 -44.9246 251° West 436 502 35,000  Level FlightAware Transoceanic
11:13AM 55.1025 -45.1250 251° West 436 502 35,000  Level FlightAware Transoceanic
11:14AM 55.0622 -45.3250 251° West 436 502 35,000  Level FlightAware Transoceanic
11:15AM 55.0216 -45.5246 250° West 436 502 35,000  Level FlightAware Transoceanic
11:16AM 54.9807 -45.7237 250° West 436 502 35,000  Level FlightAware Transoceanic
11:17AM 54.9394 -45.9225 250° West 436 502 35,000  Level FlightAware Transoceanic
11:18AM 54.8978 -46.1209 250° West 436 502 35,000  Level FlightAware Transoceanic
11:19AM 54.8559 -46.3188 250° West 436 502 35,000  Level FlightAware Transoceanic
11:20AM 54.8137 -46.5164 250° West 436 502 35,000  Level FlightAware Transoceanic
11:21AM 54.7711 -46.7135 249° West 436 502 35,000  Level FlightAware Transoceanic
11:22AM 54.7283 -46.9102 249° West 436 502 35,000  Level FlightAware Transoceanic
11:23AM 54.6851 -47.1065 249° West 436 502 35,000  Level FlightAware Transoceanic
11:24AM 54.6416 -47.3024 249° West 436 502 35,000  Level FlightAware Transoceanic
11:25AM 54.5978 -47.4979 249° West 436 502 35,000  Level FlightAware Transoceanic
11:26AM 54.5536 -47.6929 249° West 436 502 35,000  Level FlightAware Transoceanic
11:27AM 54.5092 -47.8875 248° West 436 502 35,000  Level FlightAware Transoceanic
11:28AM 54.4644 -48.0817 248° West 436 502 35,000  Level FlightAware Transoceanic
11:29AM 54.4194 -48.2755 248° West 436 502 35,000  Level FlightAware Transoceanic
11:30AM 54.3740 -48.4688 248° West 436 502 35,000  Level FlightAware Transoceanic
11:31AM 54.3283 -48.6617 248° West 436 502 35,000  Level FlightAware Transoceanic
11:32AM 54.2823 -48.8542 248° West 436 502 35,000  Level FlightAware Transoceanic
11:33AM 54.2360 -49.0462 247° West 436 502 35,000  Level FlightAware Transoceanic
11:34AM 54.1894 -49.2379 247° West 436 502 35,000  Level FlightAware Transoceanic
11:35AM 54.1425 -49.4291 247° West 436 502 35,000  Level FlightAware Transoceanic
11:36AM 54.0953 -49.6198 247° West 436 502 35,000  Level FlightAware Transoceanic
11:37AM 54.0478 -49.8101 247° West 436 502 35,000  Level FlightAware Transoceanic
11:38AM 54.0030 -49.9883 247° West  Level FlightAware Approximate
11:39AM 53.9578 -50.1661 247° West  Level FlightAware Approximate
11:39AM 54.0000 -50.0000 251° West 424 488 35,000  Level ETMS Enhanced Traffic Management System
11:40AM 53.9641 -50.1568 249° West  Level FlightAware Approximate
11:41AM 53.9225 -50.3369 249° West  Level FlightAware Approximate
11:42AM 53.8807 -50.5167 249° West  Level FlightAware Approximate
11:43AM 53.8386 -50.6961 248° West  Level FlightAware Approximate
11:44AM 53.7962 -50.8751 248° West  Level FlightAware Approximate
11:45AM 53.7181 -51.3133 249° West 424 488 35,000  Level FlightAware Transoceanic
11:46AM 53.6766 -51.4995 249° West 424 488 35,000  Level FlightAware Transoceanic
11:47AM 53.6349 -51.6853 249° West 424 488 35,000  Level FlightAware Transoceanic
11:48AM 53.5929 -51.8707 249° West 424 488 35,000  Level FlightAware Transoceanic
11:49AM 53.5506 -52.0558 249° West 424 488 35,000  Level FlightAware Transoceanic
11:50AM 53.5080 -52.2404 249° West 424 488 35,000  Level FlightAware Transoceanic
11:51AM 53.4651 -52.4248 249° West 424 488 35,000  Level FlightAware Transoceanic
11:52AM 53.4220 -52.6087 248° West 424 488 35,000  Level FlightAware Transoceanic
11:53AM 53.3785 -52.7923 248° West 424 488 35,000  Level FlightAware Transoceanic
11:54AM 53.3348 -52.9754 248° West 424 488 35,000  Level FlightAware Transoceanic
11:55AM 53.2908 -53.1583 248° West 424 488 35,000  Level FlightAware Transoceanic
11:55AM 53.3000 -53.2167 245° Southwest 430 495 35,000  Level Gander Center
11:56AM 53.2465 -53.3407 248° West 424 488 35,000  Level FlightAware Transoceanic
11:56AM 53.2333 -53.4000 239° Southwest 430 495 35,000  Level Gander Center
11:57AM 53.2020 -53.5228 248° West 424 488 35,000  Level FlightAware Transoceanic
11:57AM 53.2000 -53.5667 252° West 430 495 35,000  Level Gander Center
11:58AM 53.1572 -53.7044 248° West 424 488 35,000  Level FlightAware Transoceanic
11:58AM 53.1500 -53.7500 246° West 430 495 35,000  Level Gander Center
11:59AM 53.1120 -53.8857 247° West 424 488 35,000  Level FlightAware Transoceanic
11:59AM 53.1000 -53.9167 244° Southwest 430 495 35,000  Level Gander Center
12:00PM 53.0030 -53.9402 197° South  Level FlightAware Approximate
12:00PM 53.0500 -54.1333 249° West 430 495 35,000  Level Gander Center
12:01PM 52.9996 -54.0014 245° Southwest  Level FlightAware Approximate
12:01PM 52.9833 -54.2833 234° Southwest 420 483 36,200  Level Gander Center
12:02PM 52.9333 -54.4500 244° Southwest 420 483 37,400 1,440 Climbing Gander Center
12:03PM 52.8833 -54.6500 248° West 420 483 39,100 1,260 Climbing Gander Center
12:04PM 52.8167 -54.8333 239° Southwest 420 483 40,000 420 Climbing Gander Center
12:05PM 52.7667 -55.0000 244° Southwest 420 483 40,000  Level Gander Center
12:06PM 52.7000 -55.1833 239° Southwest 420 483 40,000  Level Gander Center
12:07PM 52.6833 -55.2500 248° West 420 483 40,000  Level Moncton Center
12:08PM 52.6167 -55.4333 239° Southwest 420 483 40,000  Level Moncton Center
12:09PM 52.5667 -55.5833 241° Southwest 430 495 40,000  Level Moncton Center
12:09PM 52.5500 -55.7000 257° West 420 483 40,000  Level Gander Center
12:10PM 52.4833 -55.8500 234° Southwest 420 483 40,000  Level Gander Center
12:11PM 52.4667 -55.9333 252° West 430 495 40,000  Level Moncton Center
12:12PM 52.4000 -56.0833 234° Southwest 420 483 40,000  Level Moncton Center
12:12PM 52.3667 -56.1833 241° Southwest 410 472 40,000  Level Gander Center
12:13PM 52.3500 -56.2500 248° West 420 483 40,000  Level Moncton Center
12:14PM 52.2833 -56.4333 239° Southwest 420 483 40,000  Level Moncton Center
12:14PM 52.2500 -56.5333 241° Southwest 420 483 40,000  Level Gander Center
12:15PM 52.1833 -56.7000 237° Southwest 420 483 40,000  Level Gander Center
12:16PM 52.1667 -56.7500 241° Southwest 430 495 40,000  Level Moncton Center
12:17PM 52.1000 -56.9333 239° Southwest 430 495 40,000  Level Moncton Center
12:17PM 52.0667 -57.0167 237° Southwest 430 495 40,000  Level Gander Center
12:18PM 52.0167 -57.1833 244° Southwest 430 495 40,000  Level Gander Center
12:19PM 51.9667 -57.2500 219° Southwest 430 495 40,000  Level Moncton Center
12:20PM 51.9167 -57.4167 244° Southwest 430 495 40,000  Level Moncton Center
12:20PM 51.8833 -57.5167 242° Southwest 430 495 40,000  Level Gander Center
12:21PM 51.8667 -57.5833 248° West 430 495 40,000  Level Moncton Center
12:21PM 51.8167 -57.6833 231° Southwest 430 495 40,000  Level Gander Center
12:22PM 51.7500 -57.8500 237° Southwest 430 495 40,000  Level Gander Center
12:23PM 51.7000 -58.0167 244° Southwest 430 495 40,000  Level Gander Center
12:24PM 51.6333 -58.1833 237° Southwest 430 495 40,000  Level Gander Center
12:25PM 51.6000 -58.2500 231° Southwest 420 483 40,000  Level Moncton Center
12:26PM 51.5333 -58.4000 234° Southwest 430 495 40,000  Level Moncton Center
12:27PM 51.4667 -58.5667 237° Southwest 420 483 40,000  Level Moncton Center
12:27PM 51.4500 -58.6500 252° West 420 483 40,000  Level Gander Center
12:28PM 51.3833 -58.8167 237° Southwest 420 483 40,000  Level Gander Center
12:29PM 51.3167 -58.9500 231° Southwest 420 483 40,000  Level Gander Center
12:30PM 51.2500 -59.1167 237° Southwest 420 483 40,000  Level Gander Center
12:31PM 51.1833 -59.2833 238° Southwest 420 483 40,000  Level Gander Center
12:32PM 51.1167 -59.4500 238° Southwest 420 483 40,000  Level Gander Center
12:33PM 51.0667 -59.5833 239° Southwest 420 483 40,000  Level Gander Center
12:34PM 51.0000 -59.7333 235° Southwest 410 472 40,000  Level Gander Center
12:35PM 50.9333 -59.9000 238° Southwest 420 483 40,000  Level Gander Center
12:36PM 50.8667 -60.0333 232° Southwest 420 483 40,000  Level Gander Center
12:37PM 50.8000 -60.2000 238° Southwest 420 483 40,000  Level Gander Center
12:38PM 50.7333 -60.3500 235° Southwest 420 483 40,000  Level Gander Center
12:39PM 50.6667 -60.5167 238° Southwest 420 483 40,000  Level Gander Center
12:40PM 50.6000 -60.6500 232° Southwest 410 472 40,000  Level Gander Center
12:41PM 50.5500 -60.8167 245° Southwest 410 472 40,000  Level Gander Center
12:42PM 50.4667 -60.9667 229° Southwest 430 495 40,000  Level Gander Center
12:43PM 50.4167 -61.1167 242° Southwest 420 483 40,000  Level Gander Center
12:44PM 50.3333 -61.2833 232° Southwest 420 483 40,000  Level Gander Center
12:45PM 50.2667 -61.4167 232° Southwest 420 483 40,000  Level Gander Center
12:46PM 50.2000 -61.5667 235° Southwest 430 495 40,000  Level Gander Center
12:47PM 50.1833 -61.6333 249° West 430 495 40,000  Level Moncton Center
12:48PM 50.1167 -61.7833 235° Southwest 430 495 40,000  Level Moncton Center
12:48PM 50.0667 -61.8833 232° Southwest 430 495 40,000  Level Gander Center
12:49PM 50.0000 -62.0333 235° Southwest 430 495 40,000  Level Gander Center
12:50PM 49.9333 -62.1667 232° Southwest 430 495 40,000  Level Gander Center
12:51PM 49.8667 -62.3500 241° Southwest 420 483 40,000  Level Gander Center
12:52PM 49.8333 -62.4000 224° Southwest 420 483 40,000  Level Moncton Center
12:53PM 49.7667 -62.5500 236° Southwest 420 483 40,000  Level Moncton Center
12:53PM 49.7333 -62.6333 238° Southwest 420 483 40,000  Level Gander Center
12:54PM 49.7000 -62.6833 224° Southwest 420 483 40,000  Level Moncton Center
12:55PM 49.6333 -62.8500 238° Southwest 420 483 40,000  Level Moncton Center
12:55PM 49.5833 -62.9000 213° Southwest 420 483 40,000  Level Gander Center
12:56PM 49.5167 -63.0667 238° Southwest 410 472 40,000  Level Gander Center
12:57PM 49.4500 -63.2167 236° Southwest 420 483 40,000  Level Gander Center
12:58PM 49.3833 -63.3667 236° Southwest 420 483 40,000  Level Gander Center
12:59PM 49.3500 -63.4167 224° Southwest 420 483 40,000  Level Moncton Center
01:00PM 49.2833 -63.5500 233° Southwest 420 483 40,000  Level Moncton Center
01:01PM 49.2167 -63.7000 236° Southwest 420 483 40,000  Level Moncton Center
01:02PM 49.1500 -63.8333 233° Southwest 420 483 40,000  Level Moncton Center
01:03PM 49.0667 -63.9833 230° Southwest 420 483 40,000  Level Moncton Center
01:04PM 49.0000 -64.1500 239° Southwest 420 483 40,000  Level Moncton Center
01:05PM 48.9333 -64.2667 229° Southwest 420 483 40,000  Level Moncton Center
01:06PM 48.8667 -64.4167 236° Southwest 420 483 40,000  Level Moncton Center
01:07PM 48.8000 -64.5500 233° Southwest 420 483 40,000  Level Moncton Center
01:08PM 48.7167 -64.7000 230° Southwest 410 472 40,000  Level Moncton Center
01:09PM 48.6500 -64.8333 233° Southwest 410 472 40,000  Level Moncton Center
01:10PM 48.5833 -64.9833 236° Southwest 410 472 40,000  Level Moncton Center
01:11PM 48.5167 -65.1000 229° Southwest 400 460 40,000  Level Moncton Center
01:12PM 48.4500 -65.2500 236° Southwest 410 472 40,000  Level Moncton Center
01:13PM 48.3833 -65.3833 233° Southwest 410 472 40,000  Level Moncton Center
01:14PM 48.3167 -65.5000 229° Southwest 400 460 40,000  Level Moncton Center
01:15PM 48.2500 -65.6500 236° Southwest 410 472 40,000  Level Moncton Center
01:16PM 48.1833 -65.7833 233° Southwest 400 460 40,000  Level Moncton Center
01:17PM 48.1000 -65.9333 230° Southwest 400 460 40,000  Level Moncton Center
01:18PM 48.0333 -66.0500 230° Southwest 410 472 40,000  Level Moncton Center
01:19PM 47.9667 -66.2000 236° Southwest 410 472 40,000  Level Moncton Center
01:20PM 47.9000 -66.3167 230° Southwest 410 472 40,000  Level Moncton Center
01:21PM 47.8167 -66.4333 223° Southwest 400 460 40,000  Level Moncton Center
01:22PM 47.7667 -66.5667 241° Southwest 400 460 40,000  Level Moncton Center
01:23PM 47.6833 -66.7167 231° Southwest 400 460 40,000  Level Moncton Center
01:24PM 47.6167 -66.8333 230° Southwest 390 449 40,000  Level Moncton Center
01:25PM 47.5500 -66.9500 230° Southwest 390 449 40,000  Level Moncton Center
01:26PM 47.4833 -67.0667 230° Southwest 390 449 40,000  Level Moncton Center
01:31PM 47.1170 -67.7320 230° Southwest 397 457 40,000  Level FlightAware
01:32PM 47.0480 -67.8460 228° Southwest 397 457 40,000  Level FlightAware
01:33PM 47.0060 -67.9140 228° Southwest 397 457 40,000  Level FlightAware
01:34PM 46.9640 -67.9820 228° Southwest 397 457 40,000  Level FlightAware
01:35PM 47.0750 -67.8020 48° Northeast 40,000  Level FlightAware
01:36PM 46.8200 -68.2240 229° Southwest 405 466 40,000  Level FlightAware
01:36PM 46.7820 -68.2870 229° Southwest 405 466 40,000  Level FlightAware
01:37PM 46.7390 -68.3560 228° Southwest 405 466 40,000  Level FlightAware
01:38PM 46.6670 -68.4740 228° Southwest 407 468 40,000  Level FlightAware
01:38PM 46.6180 -68.5550 229° Southwest 406 467 40,000  Level FlightAware
01:39PM 46.5600 -68.6480 228° Southwest 409 471 40,000  Level FlightAware
01:40PM 46.5100 -68.7300 228° Southwest 410 472 40,000  Level FlightAware
01:40PM 46.4590 -68.8110 228° Southwest 408 470 40,000  Level FlightAware
01:41PM 46.4030 -68.9030 229° Southwest 410 472 40,000  Level FlightAware
01:42PM 46.3520 -68.9830 227° Southwest 409 471 40,000  Level FlightAware
01:42PM 46.2960 -69.0740 228° Southwest 407 468 40,000  Level FlightAware
01:43PM 46.2450 -69.1540 227° Southwest 407 468 40,000  Level FlightAware
01:44PM 46.1950 -69.2340 228° Southwest 407 468 40,000  Level FlightAware
01:45PM 46.1390 -69.3240 228° Southwest 406 467 40,000  Level FlightAware
01:45PM 46.0880 -69.4040 227° Southwest 407 468 40,000  Level FlightAware
01:46PM 46.0310 -69.4940 228° Southwest 406 467 40,000 -180 Level FlightAware
01:47PM 45.9810 -69.5720 227° Southwest 403 464 39,800 -600 Descending FlightAware
01:47PM 45.9310 -69.6510 228° Southwest 397 457 39,200 -1,020 Descending FlightAware
01:48PM 45.8760 -69.7370 227° Southwest 394 453 38,400 -900 Descending FlightAware
01:49PM 45.8270 -69.8130 227° Southwest 397 457 38,000 -300 Descending FlightAware
01:49PM 45.7770 -69.8910 227° Southwest 402 463 38,000  Level FlightAware
01:50PM 45.7200 -69.9790 227° Southwest 402 463 38,000  Level FlightAware
01:51PM 45.6700 -70.0570 227° Southwest 406 467 38,000  Level FlightAware
01:52PM 45.6130 -70.1450 227° Southwest 407 468 38,000  Level FlightAware
01:52PM 45.5620 -70.2230 227° Southwest 405 466 38,000  Level FlightAware
01:53PM 45.5050 -70.3120 228° Southwest 404 465 38,000  Level FlightAware
01:54PM 45.4540 -70.3890 227° Southwest 403 464 38,000  Level FlightAware
01:54PM 45.4030 -70.4660 227° Southwest 402 463 38,000  Level FlightAware
01:55PM 45.3470 -70.5520 227° Southwest 401 461 38,000  Level FlightAware
01:56PM 45.2960 -70.6290 227° Southwest 398 458 38,000  Level FlightAware
01:56PM 45.2410 -70.7120 227° Southwest 396 456 38,000  Level FlightAware
01:57PM 45.1900 -70.7890 227° Southwest 399 459 38,000  Level FlightAware
01:58PM 45.1400 -70.8650 227° Southwest 398 458 38,000  Level FlightAware
01:59PM 45.0830 -70.9500 226° Southwest 398 458 38,000  Level FlightAware
01:59PM 45.0330 -71.0240 226° Southwest 398 458 38,000  Level FlightAware
02:00PM 44.9820 -71.1000 227° Southwest 401 461 38,000  Level FlightAware
02:01PM 44.9260 -71.1840 227° Southwest 398 458 38,000  Level FlightAware
02:01PM 44.8740 -71.2600 226° Southwest 400 460 38,000  Level FlightAware
02:02PM 44.8180 -71.3440 227° Southwest 398 458 38,000  Level FlightAware
02:03PM 44.7680 -71.4160 226° Southwest 395 455 38,000  Level FlightAware
02:03PM 44.7080 -71.5040 226° Southwest 396 456 38,000  Level FlightAware
02:04PM 44.6610 -71.5730 226° Southwest 395 455 38,000  Level FlightAware
02:05PM 44.6100 -71.6480 226° Southwest 389 448 38,000  Level FlightAware
02:06PM 44.5540 -71.7300 226° Southwest 388 447 38,000  Level FlightAware
02:06PM 44.5060 -71.7990 226° Southwest 386 444 38,000  Level FlightAware
02:07PM 44.4470 -71.8850 226° Southwest 385 443 38,000  Level FlightAware
02:08PM 44.3980 -71.9550 226° Southwest 385 443 38,000  Level FlightAware
02:08PM 44.3480 -72.0270 226° Southwest 386 444 38,000  Level FlightAware
02:09PM 44.3000 -72.0950 225° Southwest 386 444 38,000  Level FlightAware
02:10PM 44.2420 -72.1780 226° Southwest 388 447 38,000  Level FlightAware
02:10PM 44.1900 -72.2520 226° Southwest 388 447 38,000  Level FlightAware
02:11PM 44.1360 -72.3290 226° Southwest 389 448 38,000  Level FlightAware
02:12PM 44.0850 -72.4010 225° Southwest 388 447 38,000  Level FlightAware
02:13PM 44.0280 -72.4810 225° Southwest 387 445 38,000  Level FlightAware
02:13PM 43.9770 -72.5530 225° Southwest 387 445 38,000  Level FlightAware
02:14PM 43.9270 -72.6230 225° Southwest 389 448 38,000  Level FlightAware
02:15PM 43.8700 -72.7020 225° Southwest 390 449 38,000  Level FlightAware
02:15PM 43.8210 -72.7710 225° Southwest 388 447 38,000  Level FlightAware
02:16PM 43.7610 -72.8540 225° Southwest 395 455 38,000  Level FlightAware
02:17PM 43.7100 -72.9250 225° Southwest 395 455 38,000  Level FlightAware
02:17PM 43.6520 -73.0040 225° Southwest 393 452 38,000 -660 Level FlightAware
02:18PM 43.6020 -73.0740 225° Southwest 397 457 37,100 -1,500 Descending FlightAware
02:19PM 43.5420 -73.1570 225° Southwest 404 465 35,900 -1,380 Descending FlightAware
02:20PM 43.4880 -73.2300 224° Southwest 400 460 35,200 -1,140 Descending FlightAware
02:20PM 43.4350 -73.3020 225° Southwest 398 458 34,400 -1,980 Descending FlightAware
02:21PM 43.3800 -73.3770 225° Southwest 405 466 32,400 -2,940 Descending FlightAware
02:22PM 43.3420 -73.4290 225° Southwest 417 480 30,500 -4,020 Descending FlightAware
02:22PM 43.2790 -73.5130 224° Southwest 433 498 27,100 -2,580 Descending FlightAware
02:23PM 43.2290 -73.5800 224° Southwest 438 504 26,900 -3,720 Descending FlightAware
02:23PM 43.1470 -73.6340 206° Southwest 436 502 22,800 -3,960 Descending FlightAware
02:24PM 43.0370 -73.6810 197° South 424 488 21,000 -1,920 Descending FlightAware
02:25PM 42.9600 -73.7130 197° South 415 478 19,600 -2,100 Descending FlightAware
02:26PM 42.9050 -73.7360 197° South 406 467 18,600 -2,100 Descending FlightAware
02:26PM 42.8370 -73.7640 197° South 382 440 17,200 -1,980 Descending FlightAware
02:27PM 42.7640 -73.7940 197° South 365 420 15,800 -1,020 Descending FlightAware
02:28PM 42.7020 -73.8210 198° South 349 402 15,800  Level FlightAware
02:28PM 42.6440 -73.8470 198° South 349 402 15,800  Level FlightAware
02:29PM 42.5680 -73.8810 198° South 352 405 15,800  Level FlightAware
02:30PM 42.5180 -73.9020 197° South 354 407 15,800  Level FlightAware
02:30PM 42.4650 -73.9240 197° South 354 407 15,800  Level FlightAware
02:31PM 42.3980 -73.9510 197° South 354 407 15,800  Level FlightAware
02:32PM 42.3580 -73.9680 197° South 354 407 15,800  Level FlightAware
02:32PM 42.3050 -73.9900 197° South 354 407 15,800  Level FlightAware
02:33PM 42.2520 -74.0120 197° South 354 407 15,800  Level FlightAware
02:34PM 42.1594 -74.0672 197° South 296 341 15,900 -240 Climbing Boston Center
02:35PM 42.0714 -74.1042 197° South 296 341 15,400 -420 Descending Boston Center
02:36PM 41.9958 -74.1386 199° South 291 335 15,100 -360 Descending Boston Center
02:37PM 41.9308 -74.1675 198° South 291 335 14,700 -1,140 Descending Boston Center
02:42PM 41.5580 -74.2350 198° South 245 282 8,100 -1,200 Descending FlightAware
02:43PM 41.5340 -74.2530 209° Southwest 245 282 8,100  Level FlightAware
02:43PM 41.5080 -74.2710 207° Southwest 245 282 8,100  Level FlightAware
02:44PM 41.4910 -74.2830 208° Southwest 245 282 8,100  Level FlightAware
02:44PM 41.4740 -74.2950 208° Southwest 245 282 8,100 -300 Level FlightAware
02:49PM 41.1300 -74.4910 203° Southwest 255 293 6,700 -300 Descending FlightAware
02:50PM 41.0755 -74.5030 189° South 270 311 6,500 -600 Descending FlightAware ADS-B
02:50PM 41.0490 -74.4670 134° Southeast 290 334 6,000 -1,200 Descending FlightAware
02:51PM 41.0437 -74.4467 109° East 289 333 5,700 -600 Descending FlightAware ADS-B
02:51PM 41.0330 -74.4040 108° East 289 333 5,600 -1,440 Descending FlightAware
02:51PM 41.0274 -74.3850 111° Southeast 289 333 4,800 -2,460 Descending FlightAware ADS-B
02:51PM 41.0205 -74.3603 110° East 270 311 4,700 -240 Descending FlightAware ADS-B
02:52PM 41.0138 -74.3362 110° East 258 297 4,700 -480 Level FlightAware ADS-B
02:52PM 41.0056 -74.3053 109° East 253 291 4,400 -840 Descending FlightAware ADS-B
02:52PM 40.9969 -74.2729 110° East 253 291 4,100 -840 Descending FlightAware ADS-B
02:53PM 40.9854 -74.2321 110° East 247 284 3,700 -420 Descending FlightAware ADS-B
02:53PM 40.9740 -74.1940 112° Southeast 247 284 3,700  Level FlightAware
02:54PM 40.9615 -74.1524 112° Southeast 212 244 3,700  Level FlightAware ADS-B
02:54PM 40.9558 -74.1322 110° East 189 217 3,700 -120 Level FlightAware ADS-B
02:55PM 40.9393 -74.0892 117° Southeast 187 215 3,600 -360 Descending FlightAware ADS-B
02:55PM 40.9313 -74.0802 140° Southeast 177 204 3,400 -960 Descending FlightAware ADS-B
02:56PM 40.9117 -74.0580 139° Southeast 174 200 2,900 -720 Descending FlightAware ADS-B
02:56PM 40.8908 -74.0491 162° South 174 200 2,700 -420 Descending FlightAware ADS-B
02:56PM 40.8885 -74.0487 173° South 165 190 2,700  Level FlightAware ADS-B
02:57PM 40.8624 -74.0453 174° South 182 209 2,700  Level FlightAware ADS-B
02:57PM 40.8592 -74.0453 180° South 182 209 2,700  Level FlightAware ADS-B
02:57PM 40.8554 -74.0458 186° South 182 209 2,700  Level FlightAware ADS-B
02:57PM 40.8509 -74.0472 193° South 184 212 2,700  Level FlightAware ADS-B
02:57PM 40.8425 -74.0511 199° South 173 199 2,700 -540 Level FlightAware ADS-B
02:57PM 40.8329 -74.0565 203° Southwest 175 201 2,500 -1,020 Descending FlightAware ADS-B
02:58PM 40.8067 -74.0736 206° Southwest 178 205 1,900 -960 Descending FlightAware ADS-B
02:58PM 40.7912 -74.0837 206° Southwest 165 190 1,600 -900 Descending FlightAware ADS-B
02:59PM 40.7831 -74.0889 206° Southwest 153 176 1,400 -900 Descending FlightAware ADS-B
02:59PM 40.7783 -74.0920 206° Southwest 150 173 1,300 -720 Descending FlightAware ADS-B
02:59PM 40.7673 -74.0990 206° Southwest 140 161 1,100 -780 Descending FlightAware ADS-B
02:59PM 40.7605 -74.1038 208° Southwest 118 136 900 -660 Descending FlightAware ADS-B
02:59PM 40.7538 -74.1082 206° Southwest 118 136 800 -480 Descending FlightAware ADS-B